sensor_id;sensor_type;location;lat;lon;timestamp;temperature;humidity
71082;SHT31;58740;50.672;18.690;2023-01-31T00:01:53;2.17;84.89
71082;SHT31;58740;50.672;18.690;2023-01-31T00:04:21;2.18;84.88
71082;SHT31;58740;50.672;18.690;2023-01-31T00:06:49;2.18;84.96
71082;SHT31;58740;50.672;18.690;2023-01-31T00:09:18;2.17;84.98
71082;SHT31;58740;50.672;18.690;2023-01-31T00:11:46;2.15;84.97
71082;SHT31;58740;50.672;18.690;2023-01-31T00:14:16;2.13;85.00
71082;SHT31;58740;50.672;18.690;2023-01-31T00:16:46;2.13;85.09
71082;SHT31;58740;50.672;18.690;2023-01-31T00:19:14;2.15;85.10
71082;SHT31;58740;50.672;18.690;2023-01-31T00:21:42;2.17;85.01
71082;SHT31;58740;50.672;18.690;2023-01-31T00:24:12;2.20;85.00
71082;SHT31;58740;50.672;18.690;2023-01-31T00:26:41;2.22;84.99
71082;SHT31;58740;50.672;18.690;2023-01-31T00:29:09;2.20;84.91
71082;SHT31;58740;50.672;18.690;2023-01-31T00:31:38;2.20;84.90
71082;SHT31;58740;50.672;18.690;2023-01-31T00:34:06;2.18;84.95
71082;SHT31;58740;50.672;18.690;2023-01-31T00:36:35;2.16;84.98
71082;SHT31;58740;50.672;18.690;2023-01-31T00:39:05;2.15;84.95
71082;SHT31;58740;50.672;18.690;2023-01-31T00:41:35;2.16;85.00
71082;SHT31;58740;50.672;18.690;2023-01-31T00:44:05;2.18;85.00
71082;SHT31;58740;50.672;18.690;2023-01-31T00:46:34;2.20;84.96
71082;SHT31;58740;50.672;18.690;2023-01-31T00:49:02;2.21;84.91
71082;SHT31;58740;50.672;18.690;2023-01-31T00:51:31;2.21;84.87
71082;SHT31;58740;50.672;18.690;2023-01-31T00:53:58;2.20;84.80
71082;SHT31;58740;50.672;18.690;2023-01-31T00:56:26;2.18;84.80
71082;SHT31;58740;50.672;18.690;2023-01-31T00:58:54;2.17;84.73
71082;SHT31;58740;50.672;18.690;2023-01-31T01:01:23;2.16;84.70
71082;SHT31;58740;50.672;18.690;2023-01-31T01:03:54;2.17;84.72
71082;SHT31;58740;50.672;18.690;2023-01-31T01:06:23;2.18;84.63
71082;SHT31;58740;50.672;18.690;2023-01-31T01:08:52;2.20;84.54
71082;SHT31;58740;50.672;18.690;2023-01-31T01:11:22;2.22;84.43
71082;SHT31;58740;50.672;18.690;2023-01-31T01:13:53;2.23;84.36
71082;SHT31;58740;50.672;18.690;2023-01-31T01:16:24;2.23;84.29
71082;SHT31;58740;50.672;18.690;2023-01-31T01:18:58;2.22;84.26
71082;SHT31;58740;50.672;18.690;2023-01-31T01:21:29;2.21;84.30
71082;SHT31;58740;50.672;18.690;2023-01-31T01:23:59;2.21;84.23
71082;SHT31;58740;50.672;18.690;2023-01-31T01:26:29;2.22;84.21
71082;SHT31;58740;50.672;18.690;2023-01-31T01:29:01;2.25;84.16
71082;SHT31;58740;50.672;18.690;2023-01-31T01:31:30;2.27;84.01
71082;SHT31;58740;50.672;18.690;2023-01-31T01:34:03;2.31;83.94
71082;SHT31;58740;50.672;18.690;2023-01-31T01:36:40;2.35;83.70
71082;SHT31;58740;50.672;18.690;2023-01-31T01:39:10;2.36;83.42
71082;SHT31;58740;50.672;18.690;2023-01-31T01:41:39;2.37;82.87
71082;SHT31;58740;50.672;18.690;2023-01-31T01:49:54;2.41;82.55
71082;SHT31;58740;50.672;18.690;2023-01-31T01:52:28;2.45;82.60
71082;SHT31;58740;50.672;18.690;2023-01-31T01:55:05;2.48;82.51
71082;SHT31;58740;50.672;18.690;2023-01-31T01:57:46;2.49;82.41
71082;SHT31;58740;50.672;18.690;2023-01-31T02:00:21;2.47;82.39
71082;SHT31;58740;50.672;18.690;2023-01-31T02:02:55;2.45;82.48
71082;SHT31;58740;50.672;18.690;2023-01-31T02:05:34;2.44;82.58
71082;SHT31;58740;50.672;18.690;2023-01-31T02:08:16;2.45;82.61
71082;SHT31;58740;50.672;18.690;2023-01-31T02:11:02;2.47;82.60
71082;SHT31;58740;50.672;18.690;2023-01-31T02:13:39;2.47;82.63
71082;SHT31;58740;50.672;18.690;2023-01-31T02:16:08;2.46;82.62
71082;SHT31;58740;50.672;18.690;2023-01-31T02:18:36;2.44;82.32
71082;SHT31;58740;50.672;18.690;2023-01-31T02:33:29;2.30;82.39
71082;SHT31;58740;50.672;18.690;2023-01-31T02:39:02;2.32;82.31
71082;SHT31;58740;50.672;18.690;2023-01-31T02:42:19;2.33;82.30
71082;SHT31;58740;50.672;18.690;2023-01-31T02:45:24;2.33;82.28
71082;SHT31;58740;50.672;18.690;2023-01-31T02:56:44;2.29;82.53
71082;SHT31;58740;50.672;18.690;2023-01-31T02:59:18;2.31;82.60
71082;SHT31;58740;50.672;18.690;2023-01-31T03:01:54;2.34;82.57
71082;SHT31;58740;50.672;18.690;2023-01-31T03:04:31;2.37;82.55
71082;SHT31;58740;50.672;18.690;2023-01-31T03:07:12;2.40;82.55
71082;SHT31;58740;50.672;18.690;2023-01-31T03:13:09;2.40;82.44
71082;SHT31;58740;50.672;18.690;2023-01-31T03:19:04;2.34;82.34
71082;SHT31;58740;50.672;18.690;2023-01-31T03:21:46;2.31;82.19
71082;SHT31;58740;50.672;18.690;2023-01-31T03:24:21;2.30;82.13
71082;SHT31;58740;50.672;18.690;2023-01-31T03:26:52;2.29;82.01
71082;SHT31;58740;50.672;18.690;2023-01-31T03:29:25;2.29;82.00
71082;SHT31;58740;50.672;18.690;2023-01-31T03:32:35;2.27;81.96
71082;SHT31;58740;50.672;18.690;2023-01-31T03:35:01;2.24;81.93
71082;SHT31;58740;50.672;18.690;2023-01-31T03:43:04;2.04;82.58
71082;SHT31;58740;50.672;18.690;2023-01-31T03:45:48;1.97;82.82
71082;SHT31;58740;50.672;18.690;2023-01-31T03:48:25;1.94;82.99
71082;SHT31;58740;50.672;18.690;2023-01-31T03:51:03;1.92;83.00
71082;SHT31;58740;50.672;18.690;2023-01-31T03:53:37;1.89;83.01
71082;SHT31;58740;50.672;18.690;2023-01-31T03:56:23;1.88;83.00
71082;SHT31;58740;50.672;18.690;2023-01-31T03:59:14;1.85;83.07
71082;SHT31;58740;50.672;18.690;2023-01-31T04:01:50;1.82;83.11
71082;SHT31;58740;50.672;18.690;2023-01-31T04:07:08;1.76;83.10
71082;SHT31;58740;50.672;18.690;2023-01-31T04:09:37;1.75;83.03
71082;SHT31;58740;50.672;18.690;2023-01-31T04:12:05;1.75;83.00
71082;SHT31;58740;50.672;18.690;2023-01-31T04:14:33;1.76;82.93
71082;SHT31;58740;50.672;18.690;2023-01-31T04:17:01;1.76;82.90
71082;SHT31;58740;50.672;18.690;2023-01-31T04:19:28;1.76;82.90
71082;SHT31;58740;50.672;18.690;2023-01-31T04:21:56;1.74;82.90
71082;SHT31;58740;50.672;18.690;2023-01-31T04:24:24;1.73;82.91
71082;SHT31;58740;50.672;18.690;2023-01-31T04:26:54;1.70;82.92
71082;SHT31;58740;50.672;18.690;2023-01-31T04:29:22;1.70;82.83
71082;SHT31;58740;50.672;18.690;2023-01-31T04:31:49;1.71;82.75
71082;SHT31;58740;50.672;18.690;2023-01-31T04:34:17;1.73;82.65
71082;SHT31;58740;50.672;18.690;2023-01-31T04:36:45;1.73;82.61
71082;SHT31;58740;50.672;18.690;2023-01-31T04:39:12;1.73;82.58
71082;SHT31;58740;50.672;18.690;2023-01-31T04:41:42;1.73;82.52
71082;SHT31;58740;50.672;18.690;2023-01-31T04:44:10;1.73;82.45
71082;SHT31;58740;50.672;18.690;2023-01-31T04:46:39;1.70;82.48
71082;SHT31;58740;50.672;18.690;2023-01-31T04:49:06;1.68;82.50
71082;SHT31;58740;50.672;18.690;2023-01-31T04:51:35;1.66;82.60
71082;SHT31;58740;50.672;18.690;2023-01-31T04:54:03;1.67;82.66
71082;SHT31;58740;50.672;18.690;2023-01-31T04:56:34;1.70;82.68
71082;SHT31;58740;50.672;18.690;2023-01-31T04:59:02;1.73;82.70
71082;SHT31;58740;50.672;18.690;2023-01-31T05:01:30;1.78;82.59
71082;SHT31;58740;50.672;18.690;2023-01-31T05:03:58;1.78;82.56
71082;SHT31;58740;50.672;18.690;2023-01-31T05:06:26;1.78;82.60
71082;SHT31;58740;50.672;18.690;2023-01-31T05:08:53;1.77;82.59
71082;SHT31;58740;50.672;18.690;2023-01-31T05:11:21;1.76;82.60
71082;SHT31;58740;50.672;18.690;2023-01-31T05:13:49;1.74;82.66
71082;SHT31;58740;50.672;18.690;2023-01-31T05:16:17;1.73;82.70
71082;SHT31;58740;50.672;18.690;2023-01-31T05:18:44;1.74;82.69
71082;SHT31;58740;50.672;18.690;2023-01-31T05:21:12;1.74;82.70
71082;SHT31;58740;50.672;18.690;2023-01-31T05:23:40;1.74;82.72
71082;SHT31;58740;50.672;18.690;2023-01-31T05:26:07;1.75;82.74
71082;SHT31;58740;50.672;18.690;2023-01-31T05:28:35;1.76;82.68
71082;SHT31;58740;50.672;18.690;2023-01-31T05:31:04;1.75;82.62
71082;SHT31;58740;50.672;18.690;2023-01-31T05:33:34;1.75;82.50
71082;SHT31;58740;50.672;18.690;2023-01-31T05:36:02;1.71;82.52
71082;SHT31;58740;50.672;18.690;2023-01-31T05:38:30;1.70;82.51
71082;SHT31;58740;50.672;18.690;2023-01-31T05:40:58;1.71;82.51
71082;SHT31;58740;50.672;18.690;2023-01-31T05:43:26;1.70;82.28
71082;SHT31;58740;50.672;18.690;2023-01-31T05:45:53;1.72;82.29
71082;SHT31;58740;50.672;18.690;2023-01-31T05:48:21;1.74;82.19
71082;SHT31;58740;50.672;18.690;2023-01-31T05:50:49;1.76;82.08
71082;SHT31;58740;50.672;18.690;2023-01-31T05:53:17;1.75;81.96
71082;SHT31;58740;50.672;18.690;2023-01-31T05:55:46;1.73;81.94
71082;SHT31;58740;50.672;18.690;2023-01-31T05:58:14;1.71;81.94
71082;SHT31;58740;50.672;18.690;2023-01-31T06:00:43;1.70;81.96
71082;SHT31;58740;50.672;18.690;2023-01-31T06:03:10;1.72;81.94
71082;SHT31;58740;50.672;18.690;2023-01-31T06:05:39;1.74;81.89
71082;SHT31;58740;50.672;18.690;2023-01-31T06:08:07;1.75;81.75
71082;SHT31;58740;50.672;18.690;2023-01-31T06:10:34;1.76;81.70
71082;SHT31;58740;50.672;18.690;2023-01-31T06:13:02;1.74;81.59
71082;SHT31;58740;50.672;18.690;2023-01-31T06:15:30;1.73;81.57
71082;SHT31;58740;50.672;18.690;2023-01-31T06:17:58;1.71;81.68
71082;SHT31;58740;50.672;18.690;2023-01-31T06:20:26;1.70;81.64
71082;SHT31;58740;50.672;18.690;2023-01-31T06:22:55;1.70;81.70
71082;SHT31;58740;50.672;18.690;2023-01-31T06:25:22;1.72;81.69
71082;SHT31;58740;50.672;18.690;2023-01-31T06:27:50;1.74;81.60
71082;SHT31;58740;50.672;18.690;2023-01-31T06:30:18;1.76;81.59
71082;SHT31;58740;50.672;18.690;2023-01-31T06:32:46;1.79;81.54
71082;SHT31;58740;50.672;18.690;2023-01-31T06:35:14;1.79;81.38
71082;SHT31;58740;50.672;18.690;2023-01-31T06:37:42;1.78;81.36
71082;SHT31;58740;50.672;18.690;2023-01-31T06:40:10;1.78;81.35
71082;SHT31;58740;50.672;18.690;2023-01-31T06:42:38;1.77;81.30
71082;SHT31;58740;50.672;18.690;2023-01-31T06:45:06;1.75;81.34
71082;SHT31;58740;50.672;18.690;2023-01-31T06:47:35;1.75;81.29
71082;SHT31;58740;50.672;18.690;2023-01-31T06:50:03;1.76;81.28
71082;SHT31;58740;50.672;18.690;2023-01-31T06:52:31;1.78;81.21
71082;SHT31;58740;50.672;18.690;2023-01-31T06:55:00;1.81;81.15
71082;SHT31;58740;50.672;18.690;2023-01-31T06:57:27;1.82;80.90
71082;SHT31;58740;50.672;18.690;2023-01-31T06:59:55;1.82;80.65
71082;SHT31;58740;50.672;18.690;2023-01-31T07:02:23;1.81;80.63
71082;SHT31;58740;50.672;18.690;2023-01-31T07:04:51;1.80;80.66
71082;SHT31;58740;50.672;18.690;2023-01-31T07:07:19;1.80;80.68
71082;SHT31;58740;50.672;18.690;2023-01-31T07:09:47;1.78;80.62
71082;SHT31;58740;50.672;18.690;2023-01-31T07:12:14;1.78;80.50
71082;SHT31;58740;50.672;18.690;2023-01-31T07:14:42;1.79;80.53
71082;SHT31;58740;50.672;18.690;2023-01-31T07:17:10;1.82;80.51
71082;SHT31;58740;50.672;18.690;2023-01-31T07:19:38;1.83;80.50
71082;SHT31;58740;50.672;18.690;2023-01-31T07:22:05;1.84;80.55
71082;SHT31;58740;50.672;18.690;2023-01-31T07:24:33;1.86;80.45
71082;SHT31;58740;50.672;18.690;2023-01-31T07:27:01;1.87;80.43
71082;SHT31;58740;50.672;18.690;2023-01-31T07:29:29;1.86;80.38
71082;SHT31;58740;50.672;18.690;2023-01-31T07:31:57;1.84;80.49
71082;SHT31;58740;50.672;18.690;2023-01-31T07:34:25;1.82;80.49
71082;SHT31;58740;50.672;18.690;2023-01-31T07:36:53;1.82;80.59
71082;SHT31;58740;50.672;18.690;2023-01-31T07:39:20;1.81;80.44
71082;SHT31;58740;50.672;18.690;2023-01-31T07:41:48;1.83;80.49
71082;SHT31;58740;50.672;18.690;2023-01-31T07:44:16;1.85;80.51
71082;SHT31;58740;50.672;18.690;2023-01-31T07:46:45;1.88;80.42
71082;SHT31;58740;50.672;18.690;2023-01-31T07:49:13;1.91;80.36
71082;SHT31;58740;50.672;18.690;2023-01-31T07:51:41;1.95;80.19
71082;SHT31;58740;50.672;18.690;2023-01-31T07:54:09;1.93;80.08
71082;SHT31;58740;50.672;18.690;2023-01-31T07:56:38;1.94;80.15
71082;SHT31;58740;50.672;18.690;2023-01-31T07:59:05;1.92;80.05
71082;SHT31;58740;50.672;18.690;2023-01-31T08:01:33;1.93;80.15
71082;SHT31;58740;50.672;18.690;2023-01-31T08:04:20;1.92;80.11
71082;SHT31;58740;50.672;18.690;2023-01-31T08:06:50;1.91;80.09
71082;SHT31;58740;50.672;18.690;2023-01-31T08:09:21;1.93;80.19
71082;SHT31;58740;50.672;18.690;2023-01-31T08:11:51;1.96;80.10
71082;SHT31;58740;50.672;18.690;2023-01-31T08:14:19;1.98;80.13
71082;SHT31;58740;50.672;18.690;2023-01-31T08:16:52;2.02;80.03
71082;SHT31;58740;50.672;18.690;2023-01-31T08:19:21;2.02;79.97
71082;SHT31;58740;50.672;18.690;2023-01-31T08:21:49;2.03;79.96
71082;SHT31;58740;50.672;18.690;2023-01-31T08:24:17;2.04;79.97
71082;SHT31;58740;50.672;18.690;2023-01-31T08:26:44;2.06;79.98
71082;SHT31;58740;50.672;18.690;2023-01-31T08:29:13;2.05;79.82
71082;SHT31;58740;50.672;18.690;2023-01-31T08:31:40;2.03;79.74
71082;SHT31;58740;50.672;18.690;2023-01-31T08:34:08;2.01;79.74
71082;SHT31;58740;50.672;18.690;2023-01-31T08:36:37;2.03;79.74
71082;SHT31;58740;50.672;18.690;2023-01-31T08:39:05;2.06;79.71
71082;SHT31;58740;50.672;18.690;2023-01-31T08:41:33;2.10;79.57
71082;SHT31;58740;50.672;18.690;2023-01-31T08:44:04;2.12;79.48
71082;SHT31;58740;50.672;18.690;2023-01-31T08:46:33;2.14;79.45
71082;SHT31;58740;50.672;18.690;2023-01-31T08:49:04;2.16;79.36
71082;SHT31;58740;50.672;18.690;2023-01-31T08:51:33;2.17;79.20
71082;SHT31;58740;50.672;18.690;2023-01-31T08:54:01;2.15;79.10
71082;SHT31;58740;50.672;18.690;2023-01-31T08:56:30;2.14;79.04
71082;SHT31;58740;50.672;18.690;2023-01-31T08:58:58;2.13;78.86
71082;SHT31;58740;50.672;18.690;2023-01-31T09:01:26;2.13;78.68
71082;SHT31;58740;50.672;18.690;2023-01-31T09:03:54;2.16;78.66
71082;SHT31;58740;50.672;18.690;2023-01-31T09:06:24;2.18;78.08
71082;SHT31;58740;50.672;18.690;2023-01-31T09:08:54;2.19;78.07
71082;SHT31;58740;50.672;18.690;2023-01-31T09:11:25;2.20;77.88
71082;SHT31;58740;50.672;18.690;2023-01-31T09:13:56;2.21;77.69
71082;SHT31;58740;50.672;18.690;2023-01-31T09:16:24;2.20;77.03
71082;SHT31;58740;50.672;18.690;2023-01-31T09:18:52;2.19;76.62
71082;SHT31;58740;50.672;18.690;2023-01-31T09:21:22;2.19;76.43
71082;SHT31;58740;50.672;18.690;2023-01-31T09:23:58;2.17;76.47
71082;SHT31;58740;50.672;18.690;2023-01-31T09:26:30;2.17;76.07
71082;SHT31;58740;50.672;18.690;2023-01-31T09:28:58;2.17;76.38
71082;SHT31;58740;50.672;18.690;2023-01-31T09:31:27;2.20;76.35
71082;SHT31;58740;50.672;18.690;2023-01-31T09:33:57;2.22;76.13
71082;SHT31;58740;50.672;18.690;2023-01-31T09:36:27;2.24;75.88
71082;SHT31;58740;50.672;18.690;2023-01-31T09:38:56;2.24;75.90
71082;SHT31;58740;50.672;18.690;2023-01-31T09:41:44;2.25;76.02
71082;SHT31;58740;50.672;18.690;2023-01-31T09:44:35;2.25;75.87
71082;SHT31;58740;50.672;18.690;2023-01-31T09:47:12;2.24;76.16
71082;SHT31;58740;50.672;18.690;2023-01-31T09:49:51;2.24;76.36
71082;SHT31;58740;50.672;18.690;2023-01-31T09:52:26;2.22;76.30
71082;SHT31;58740;50.672;18.690;2023-01-31T09:54:56;2.20;76.27
71082;SHT31;58740;50.672;18.690;2023-01-31T09:57:31;2.19;76.21
71082;SHT31;58740;50.672;18.690;2023-01-31T10:06:09;2.26;76.59
71082;SHT31;58740;50.672;18.690;2023-01-31T10:12:14;2.30;76.45
71082;SHT31;58740;50.672;18.690;2023-01-31T10:14:56;2.30;76.47
71082;SHT31;58740;50.672;18.690;2023-01-31T10:17:32;2.30;76.67
71082;SHT31;58740;50.672;18.690;2023-01-31T10:20:09;2.29;76.77
71082;SHT31;58740;50.672;18.690;2023-01-31T10:31:46;2.30;77.28
71082;SHT31;58740;50.672;18.690;2023-01-31T10:37:04;2.36;77.29
71082;SHT31;58740;50.672;18.690;2023-01-31T10:42:39;2.43;77.23
71082;SHT31;58740;50.672;18.690;2023-01-31T10:45:15;2.44;77.14
71082;SHT31;58740;50.672;18.690;2023-01-31T10:48:07;2.45;76.85
71082;SHT31;58740;50.672;18.690;2023-01-31T10:50:50;2.44;76.57
71082;SHT31;58740;50.672;18.690;2023-01-31T10:56:33;2.45;76.07
71082;SHT31;58740;50.672;18.690;2023-01-31T10:59:06;2.47;75.59
71082;SHT31;58740;50.672;18.690;2023-01-31T11:01:46;2.53;75.47
71082;SHT31;58740;50.672;18.690;2023-01-31T11:04:25;2.55;74.90
71082;SHT31;58740;50.672;18.690;2023-01-31T11:07:03;2.57;74.48
71082;SHT31;58740;50.672;18.690;2023-01-31T11:09:33;2.58;73.93
71082;SHT31;58740;50.672;18.690;2023-01-31T11:12:07;2.59;74.07
71082;SHT31;58740;50.672;18.690;2023-01-31T11:14:35;2.59;74.14
71082;SHT31;58740;50.672;18.690;2023-01-31T11:17:04;2.58;74.35
71082;SHT31;58740;50.672;18.690;2023-01-31T11:24:56;2.57;74.73
71082;SHT31;58740;50.672;18.690;2023-01-31T11:27:37;2.58;74.91
71082;SHT31;58740;50.672;18.690;2023-01-31T11:30:28;2.60;74.93
71082;SHT31;58740;50.672;18.690;2023-01-31T11:33:01;2.62;74.80
71082;SHT31;58740;50.672;18.690;2023-01-31T11:35:33;2.67;74.80
71082;SHT31;58740;50.672;18.690;2023-01-31T11:40:36;2.75;74.62
71082;SHT31;58740;50.672;18.690;2023-01-31T11:45:44;2.77;74.38
71082;SHT31;58740;50.672;18.690;2023-01-31T11:48:23;2.78;74.19
71082;SHT31;58740;50.672;18.690;2023-01-31T11:51:21;2.78;73.94
71082;SHT31;58740;50.672;18.690;2023-01-31T11:53:57;2.80;73.65
71082;SHT31;58740;50.672;18.690;2023-01-31T11:56:25;2.81;73.67
71082;SHT31;58740;50.672;18.690;2023-01-31T11:59:01;2.83;73.64
71082;SHT31;58740;50.672;18.690;2023-01-31T12:01:35;2.87;73.74
71082;SHT31;58740;50.672;18.690;2023-01-31T12:04:20;2.89;73.88
71082;SHT31;58740;50.672;18.690;2023-01-31T12:07:03;2.92;74.26
71082;SHT31;58740;50.672;18.690;2023-01-31T12:09:47;2.94;74.12
71082;SHT31;58740;50.672;18.690;2023-01-31T12:15:01;2.94;74.11
71082;SHT31;58740;50.672;18.690;2023-01-31T12:17:42;2.92;74.22
71082;SHT31;58740;50.672;18.690;2023-01-31T12:37:58;3.26;73.68
71082;SHT31;58740;50.672;18.690;2023-01-31T12:41:03;3.22;73.96
71082;SHT31;58740;50.672;18.690;2023-01-31T12:46:57;3.15;74.24
71082;SHT31;58740;50.672;18.690;2023-01-31T12:55:25;3.11;74.39
71082;SHT31;58740;50.672;18.690;2023-01-31T12:58:22;3.14;74.41
71082;SHT31;58740;50.672;18.690;2023-01-31T13:06:58;3.23;74.30
71082;SHT31;58740;50.672;18.690;2023-01-31T13:09:32;3.24;74.10
71082;SHT31;58740;50.672;18.690;2023-01-31T13:14:47;3.22;74.25
71082;SHT31;58740;50.672;18.690;2023-01-31T13:17:23;3.22;74.20
71082;SHT31;58740;50.672;18.690;2023-01-31T13:19:56;3.20;74.09
71082;SHT31;58740;50.672;18.690;2023-01-31T13:22:33;3.19;74.08
71082;SHT31;58740;50.672;18.690;2023-01-31T13:25:23;3.18;74.08
71082;SHT31;58740;50.672;18.690;2023-01-31T13:28:24;3.19;74.04
71082;SHT31;58740;50.672;18.690;2023-01-31T13:30:57;3.21;74.07
71082;SHT31;58740;50.672;18.690;2023-01-31T13:36:32;3.23;74.27
71082;SHT31;58740;50.672;18.690;2023-01-31T13:39:15;3.22;74.26
71082;SHT31;58740;50.672;18.690;2023-01-31T13:42:31;3.18;74.34
71082;SHT31;58740;50.672;18.690;2023-01-31T13:45:01;3.14;74.25
71082;SHT31;58740;50.672;18.690;2023-01-31T13:47:39;3.10;74.20
71082;SHT31;58740;50.672;18.690;2023-01-31T13:53:22;3.09;74.45
71082;SHT31;58740;50.672;18.690;2023-01-31T13:56:11;3.12;74.47
71082;SHT31;58740;50.672;18.690;2023-01-31T13:58:48;3.14;74.50
71082;SHT31;58740;50.672;18.690;2023-01-31T14:01:21;3.15;74.49
71082;SHT31;58740;50.672;18.690;2023-01-31T14:09:41;3.12;74.63
71082;SHT31;58740;50.672;18.690;2023-01-31T14:14:48;3.10;74.88
71082;SHT31;58740;50.672;18.690;2023-01-31T14:20:00;3.06;75.29
71082;SHT31;58740;50.672;18.690;2023-01-31T14:25:57;3.01;76.21
71082;SHT31;58740;50.672;18.690;2023-01-31T14:28:25;2.99;76.74
71082;SHT31;58740;50.672;18.690;2023-01-31T14:30:54;2.96;77.05
71082;SHT31;58740;50.672;18.690;2023-01-31T14:33:22;2.92;77.31
71082;SHT31;58740;50.672;18.690;2023-01-31T14:39:25;2.85;77.84
71082;SHT31;58740;50.672;18.690;2023-01-31T14:50:40;2.75;78.96
71082;SHT31;58740;50.672;18.690;2023-01-31T14:59:39;2.77;79.85
71082;SHT31;58740;50.672;18.690;2023-01-31T15:02:23;2.75;79.91
71082;SHT31;58740;50.672;18.690;2023-01-31T15:05:12;2.72;80.08
71082;SHT31;58740;50.672;18.690;2023-01-31T15:08:05;2.70;80.17
71082;SHT31;58740;50.672;18.690;2023-01-31T15:10:52;2.67;80.44
71082;SHT31;58740;50.672;18.690;2023-01-31T15:13:41;2.66;80.55
71082;SHT31;58740;50.672;18.690;2023-01-31T15:19:00;2.67;80.85
71082;SHT31;58740;50.672;18.690;2023-01-31T15:21:41;2.68;80.96
71082;SHT31;58740;50.672;18.690;2023-01-31T15:25:00;2.69;81.05
71082;SHT31;58740;50.672;18.690;2023-01-31T15:27:14;2.68;81.07
71082;SHT31;58740;50.672;18.690;2023-01-31T15:30:12;2.68;81.07
71082;SHT31;58740;50.672;18.690;2023-01-31T15:35:28;2.63;81.36
71082;SHT31;58740;50.672;18.690;2023-01-31T15:38:02;2.63;81.40
71082;SHT31;58740;50.672;18.690;2023-01-31T15:40:42;2.63;81.44
71082;SHT31;58740;50.672;18.690;2023-01-31T15:43:14;2.65;81.45
71082;SHT31;58740;50.672;18.690;2023-01-31T15:45:49;2.67;81.51
71082;SHT31;58740;50.672;18.690;2023-01-31T15:48:19;2.69;81.45
71082;SHT31;58740;50.672;18.690;2023-01-31T15:50:53;2.71;81.38
71082;SHT31;58740;50.672;18.690;2023-01-31T15:53:24;2.70;81.42
71082;SHT31;58740;50.672;18.690;2023-01-31T15:55:58;2.70;81.36
71082;SHT31;58740;50.672;18.690;2023-01-31T15:58:29;2.70;81.40
71082;SHT31;58740;50.672;18.690;2023-01-31T16:00:58;2.69;81.33
71082;SHT31;58740;50.672;18.690;2023-01-31T16:03:31;2.69;81.40
71082;SHT31;58740;50.672;18.690;2023-01-31T16:06:12;2.70;81.45
71082;SHT31;58740;50.672;18.690;2023-01-31T16:08:53;2.71;81.46
71082;SHT31;58740;50.672;18.690;2023-01-31T16:11:27;2.71;81.48
71082;SHT31;58740;50.672;18.690;2023-01-31T16:14:01;2.71;81.54
71082;SHT31;58740;50.672;18.690;2023-01-31T16:16:34;2.69;81.54
71082;SHT31;58740;50.672;18.690;2023-01-31T16:19:03;2.65;81.69
71082;SHT31;58740;50.672;18.690;2023-01-31T16:21:33;2.62;81.61
71082;SHT31;58740;50.672;18.690;2023-01-31T16:24:14;2.60;81.62
71082;SHT31;58740;50.672;18.690;2023-01-31T16:29:44;2.58;81.78
71082;SHT31;58740;50.672;18.690;2023-01-31T16:32:36;2.56;81.70
71082;SHT31;58740;50.672;18.690;2023-01-31T16:35:17;2.55;81.70
71082;SHT31;58740;50.672;18.690;2023-01-31T16:38:04;2.54;81.66
71082;SHT31;58740;50.672;18.690;2023-01-31T16:40:46;2.50;81.67
71082;SHT31;58740;50.672;18.690;2023-01-31T16:43:26;2.45;81.75
71082;SHT31;58740;50.672;18.690;2023-01-31T16:48:43;2.35;82.02
71082;SHT31;58740;50.672;18.690;2023-01-31T16:51:44;2.35;82.01
71082;SHT31;58740;50.672;18.690;2023-01-31T16:54:18;2.34;82.13
71082;SHT31;58740;50.672;18.690;2023-01-31T17:02:01;2.33;82.09
71082;SHT31;58740;50.672;18.690;2023-01-31T17:04:44;2.30;82.21
71082;SHT31;58740;50.672;18.690;2023-01-31T17:07:19;2.25;82.32
71082;SHT31;58740;50.672;18.690;2023-01-31T17:09:54;2.20;82.41
71082;SHT31;58740;50.672;18.690;2023-01-31T17:12:27;2.18;82.52
71082;SHT31;58740;50.672;18.690;2023-01-31T17:14:57;2.17;82.51
71082;SHT31;58740;50.672;18.690;2023-01-31T17:17:31;2.17;82.59
71082;SHT31;58740;50.672;18.690;2023-01-31T17:20:03;2.18;82.54
71082;SHT31;58740;50.672;18.690;2023-01-31T17:22:40;2.21;82.50
71082;SHT31;58740;50.672;18.690;2023-01-31T17:25:24;2.21;82.55
71082;SHT31;58740;50.672;18.690;2023-01-31T17:27:57;2.21;82.59
71082;SHT31;58740;50.672;18.690;2023-01-31T17:30:25;2.21;82.56
71082;SHT31;58740;50.672;18.690;2023-01-31T17:32:57;2.20;82.57
71082;SHT31;58740;50.672;18.690;2023-01-31T17:35:36;2.18;82.64
71082;SHT31;58740;50.672;18.690;2023-01-31T17:38:07;2.15;82.77
71082;SHT31;58740;50.672;18.690;2023-01-31T17:40:36;2.14;82.80
71082;SHT31;58740;50.672;18.690;2023-01-31T17:43:09;2.16;82.80
71082;SHT31;58740;50.672;18.690;2023-01-31T17:45:46;2.17;82.81
71082;SHT31;58740;50.672;18.690;2023-01-31T17:48:14;2.18;82.80
71082;SHT31;58740;50.672;18.690;2023-01-31T17:50:52;2.15;82.86
71082;SHT31;58740;50.672;18.690;2023-01-31T17:53:21;2.15;82.93
71082;SHT31;58740;50.672;18.690;2023-01-31T17:55:51;2.15;82.90
71082;SHT31;58740;50.672;18.690;2023-01-31T17:58:19;2.13;82.92
71082;SHT31;58740;50.672;18.690;2023-01-31T18:00:46;2.11;82.96
71082;SHT31;58740;50.672;18.690;2023-01-31T18:03:16;2.13;82.92
71082;SHT31;58740;50.672;18.690;2023-01-31T18:05:46;2.13;82.90
71082;SHT31;58740;50.672;18.690;2023-01-31T18:08:14;2.13;82.97
71082;SHT31;58740;50.672;18.690;2023-01-31T18:10:42;2.15;82.96
71082;SHT31;58740;50.672;18.690;2023-01-31T18:13:11;2.15;83.00
71082;SHT31;58740;50.672;18.690;2023-01-31T18:15:39;2.13;83.07
71082;SHT31;58740;50.672;18.690;2023-01-31T18:18:07;2.11;83.18
71082;SHT31;58740;50.672;18.690;2023-01-31T18:20:36;2.07;83.19
71082;SHT31;58740;50.672;18.690;2023-01-31T18:23:05;2.06;83.19
71082;SHT31;58740;50.672;18.690;2023-01-31T18:25:33;2.04;83.23
71082;SHT31;58740;50.672;18.690;2023-01-31T18:28:02;2.06;83.28
71082;SHT31;58740;50.672;18.690;2023-01-31T18:30:30;2.06;83.30
71082;SHT31;58740;50.672;18.690;2023-01-31T18:32:57;2.08;83.30
71082;SHT31;58740;50.672;18.690;2023-01-31T18:35:25;2.10;83.28
71082;SHT31;58740;50.672;18.690;2023-01-31T18:37:53;2.11;83.28
71082;SHT31;58740;50.672;18.690;2023-01-31T18:40:21;2.11;83.35
71082;SHT31;58740;50.672;18.690;2023-01-31T18:42:50;2.10;83.35
71082;SHT31;58740;50.672;18.690;2023-01-31T18:45:18;2.10;83.36
71082;SHT31;58740;50.672;18.690;2023-01-31T18:47:46;2.08;83.49
71082;SHT31;58740;50.672;18.690;2023-01-31T18:50:14;2.08;83.50
71082;SHT31;58740;50.672;18.690;2023-01-31T18:52:42;2.08;83.58
71082;SHT31;58740;50.672;18.690;2023-01-31T18:55:10;2.10;83.56
71082;SHT31;58740;50.672;18.690;2023-01-31T18:57:38;2.14;83.64
71082;SHT31;58740;50.672;18.690;2023-01-31T19:00:05;2.14;83.66
71082;SHT31;58740;50.672;18.690;2023-01-31T19:02:35;2.14;83.70